createdAt,value
2022-12-19T00:00:38.188Z,26.30
2022-12-19T00:03:06.224Z,28.60
2022-12-19T00:05:38.825Z,27.93
2022-12-19T00:08:16.831Z,25.93
2022-12-19T00:10:45.938Z,27.37
2022-12-19T00:13:17.821Z,25.07
2022-12-19T00:15:45.905Z,26.03
2022-12-19T00:18:13.945Z,26.23
2022-12-19T00:20:42.021Z,26.67
2022-12-19T00:23:10.052Z,25.87
2022-12-19T00:25:39.663Z,26.37
2022-12-19T00:28:08.161Z,27.40
2022-12-19T00:30:37.531Z,26.90
2022-12-19T00:33:05.806Z,27.97
2022-12-19T00:35:33.792Z,27.30
2022-12-19T00:38:02.931Z,26.90
2022-12-19T00:40:30.953Z,26.53
2022-12-19T00:42:58.958Z,26.17
2022-12-19T00:45:28.738Z,25.80
2022-12-19T00:47:59.741Z,26.23
2022-12-19T00:50:27.707Z,25.93
2022-12-19T00:52:55.657Z,26.67
2022-12-19T00:55:23.734Z,25.30
2022-12-19T00:57:51.734Z,26.90
2022-12-19T01:00:22.616Z,25.00
2022-12-19T01:02:50.637Z,27.50
2022-12-19T01:05:20.172Z,26.87
2022-12-19T01:07:48.389Z,24.93
2022-12-19T01:10:16.407Z,26.70
2022-12-19T01:12:45.986Z,27.30
2022-12-19T01:15:15.443Z,26.47
2022-12-19T01:17:43.688Z,26.17
2022-12-19T01:20:13.928Z,26.93
2022-12-19T01:22:43.264Z,27.37
2022-12-19T01:25:11.291Z,26.10
2022-12-19T01:27:39.401Z,27.33
2022-12-19T01:30:08.906Z,26.20
2022-12-19T01:32:37.706Z,26.10
2022-12-19T01:35:06.523Z,26.37
2022-12-19T01:37:37.949Z,27.73
2022-12-19T01:40:08.641Z,27.37
2022-12-19T01:42:38.709Z,25.70
2022-12-19T01:45:34.411Z,26.93
2022-12-19T01:48:13.408Z,26.00
2022-12-19T01:50:51.472Z,27.57
2022-12-19T01:53:32.721Z,27.90
2022-12-19T01:56:09.633Z,25.83
2022-12-19T01:58:42.589Z,27.77
2022-12-19T02:01:10.706Z,26.50
2022-12-19T02:03:40.673Z,26.30
2022-12-19T02:06:10.405Z,26.87
2022-12-19T02:08:39.176Z,27.73
2022-12-19T02:11:08.537Z,27.60
2022-12-19T02:13:36.625Z,26.90
2022-12-19T02:16:14.387Z,27.43
2022-12-19T02:18:49.606Z,27.20
2022-12-19T02:21:26.322Z,24.60
2022-12-19T02:24:21.859Z,26.23
2022-12-19T02:27:05.089Z,25.10
2022-12-19T02:30:04.957Z,25.97
2022-12-19T02:32:39.002Z,26.83
2022-12-19T02:35:15.555Z,27.27
2022-12-19T02:37:49.806Z,27.03
2022-12-19T02:40:24.890Z,26.30
2022-12-19T02:42:58.973Z,25.33
2022-12-19T02:45:30.962Z,24.67
2022-12-19T02:48:07.392Z,25.93
2022-12-19T02:50:38.467Z,26.53
2022-12-19T02:53:07.236Z,26.37
2022-12-19T02:55:43.516Z,28.00
2022-12-19T02:58:33.653Z,25.63
2022-12-19T03:01:11.670Z,25.77
2022-12-19T03:03:49.211Z,26.10
2022-12-19T03:06:25.858Z,26.10
2022-12-19T03:09:00.116Z,27.43
2022-12-19T03:11:31.785Z,26.00
2022-12-19T03:14:03.256Z,27.50
2022-12-19T03:16:31.453Z,27.00
2022-12-19T03:19:01.044Z,27.50
2022-12-19T03:21:35.772Z,26.50
2022-12-19T03:24:04.925Z,27.60
2022-12-19T03:26:47.241Z,25.77
2022-12-19T03:29:19.868Z,27.30
2022-12-19T03:31:49.091Z,29.00
2022-12-19T03:34:21.823Z,28.40
2022-12-19T03:36:56.226Z,27.67
2022-12-19T03:39:27.957Z,27.80
2022-12-19T03:42:14.741Z,26.97
2022-12-19T03:44:44.310Z,29.13
2022-12-19T03:47:19.214Z,29.50
2022-12-19T03:49:49.707Z,27.87
2022-12-19T03:52:28.318Z,28.13
2022-12-19T03:55:04.337Z,28.73
2022-12-19T03:57:39.096Z,29.03
2022-12-19T04:00:10.056Z,29.63
2022-12-19T04:02:40.731Z,28.70
2022-12-19T04:05:14.028Z,29.40
2022-12-19T04:07:43.625Z,29.37
2022-12-19T04:10:16.464Z,28.37
2022-12-19T04:12:49.857Z,28.10
2022-12-19T04:15:18.448Z,27.27
2022-12-19T04:17:49.715Z,28.60
2022-12-19T04:20:22.223Z,27.80
2022-12-19T04:22:57.113Z,28.20
2022-12-19T04:25:29.703Z,27.90
2022-12-19T04:28:04.343Z,28.20
2022-12-19T04:30:36.525Z,27.33
2022-12-19T04:33:05.280Z,28.60
2022-12-19T04:35:37.477Z,30.10
2022-12-19T04:38:05.974Z,29.53
2022-12-19T04:40:40.986Z,29.13
2022-12-19T04:43:09.423Z,29.67
2022-12-19T04:45:37.794Z,29.20
2022-12-19T04:48:06.350Z,28.87
2022-12-19T04:50:38.017Z,30.07
2022-12-19T04:53:07.040Z,28.40
2022-12-19T04:55:35.027Z,30.37
2022-12-19T04:58:05.877Z,29.67
2022-12-19T05:00:34.295Z,30.93
2022-12-19T05:03:02.441Z,30.30
2022-12-19T05:05:30.572Z,28.60
2022-12-19T05:07:59.904Z,30.43
2022-12-19T05:10:27.885Z,28.47
2022-12-19T05:12:56.091Z,29.43
2022-12-19T05:15:24.626Z,28.80
2022-12-19T05:17:52.624Z,29.37
2022-12-19T05:20:20.646Z,28.87
2022-12-19T05:22:48.660Z,29.83
2022-12-19T05:25:18.270Z,26.70
2022-12-19T05:27:46.249Z,29.57
2022-12-19T05:30:14.804Z,30.50
2022-12-19T05:32:42.783Z,29.97
2022-12-19T05:35:10.904Z,29.50
2022-12-19T05:37:38.878Z,29.50
2022-12-19T05:40:08.053Z,29.60
2022-12-19T05:42:37.398Z,31.50
2022-12-19T05:45:06.124Z,30.83
2022-12-19T05:47:34.106Z,29.23
2022-12-19T05:50:02.176Z,31.07
2022-12-19T05:52:30.210Z,31.03
2022-12-19T05:54:58.272Z,30.70
2022-12-19T05:57:27.120Z,31.83
2022-12-19T05:59:56.492Z,27.20
2022-12-19T06:02:25.000Z,29.07
2022-12-19T06:04:53.176Z,28.70
2022-12-19T06:07:21.510Z,30.87
2022-12-19T06:09:49.549Z,29.63
2022-12-19T06:12:17.538Z,29.03
2022-12-19T06:14:45.545Z,29.53
2022-12-19T06:17:14.883Z,29.33
2022-12-19T06:19:42.898Z,30.27
2022-12-19T06:22:14.685Z,30.20
2022-12-19T06:24:42.736Z,30.70
2022-12-19T06:27:10.796Z,30.30
2022-12-19T06:29:38.813Z,30.43
2022-12-19T06:32:07.131Z,30.97
2022-12-19T06:35:03.166Z,32.37
2022-12-19T06:37:26.101Z,31.97
2022-12-19T06:39:54.110Z,33.80
2022-12-19T06:42:24.090Z,32.17
2022-12-19T06:44:53.610Z,32.03
2022-12-19T06:47:23.299Z,29.77
2022-12-19T06:49:52.751Z,31.00
2022-12-19T06:52:20.742Z,29.83
2022-12-19T06:54:48.726Z,28.73
2022-12-19T06:57:16.706Z,29.20
2022-12-19T06:59:44.744Z,31.57
2022-12-19T07:02:25.367Z,31.13
2022-12-19T07:05:01.527Z,30.60
2022-12-19T07:07:30.045Z,30.73
2022-12-19T07:09:58.181Z,32.87
2022-12-19T07:12:26.211Z,33.27
2022-12-19T07:14:54.156Z,32.50
2022-12-19T07:17:24.158Z,33.03
2022-12-19T07:19:52.490Z,31.70
2022-12-19T07:22:22.135Z,32.57
2022-12-19T07:24:50.245Z,32.57
2022-12-19T07:27:18.244Z,30.87
2022-12-19T07:29:46.261Z,32.97
2022-12-19T07:32:14.268Z,31.97
2022-12-19T07:34:42.246Z,31.60
2022-12-19T07:37:10.245Z,33.33
2022-12-19T07:39:39.608Z,33.00
2022-12-19T07:42:07.638Z,31.23
2022-12-19T07:44:35.980Z,32.00
2022-12-19T07:47:04.028Z,32.37
2022-12-19T07:49:32.040Z,31.23
2022-12-19T07:51:59.992Z,30.23
2022-12-19T07:54:28.148Z,31.13
2022-12-19T07:56:57.455Z,30.47
2022-12-19T07:59:30.348Z,30.93
2022-12-19T08:02:00.506Z,31.00
2022-12-19T08:04:28.685Z,32.07
2022-12-19T08:06:56.649Z,30.90
2022-12-19T08:09:27.699Z,33.63
2022-12-19T08:11:57.082Z,30.73
2022-12-19T08:14:25.117Z,30.03
2022-12-19T08:17:19.864Z,29.90
2022-12-19T08:19:41.230Z,30.83
2022-12-19T08:22:09.987Z,30.53
2022-12-19T08:24:38.965Z,33.50
2022-12-19T08:27:08.427Z,31.57
2022-12-19T08:29:36.378Z,31.70
2022-12-19T08:32:04.472Z,31.70
2022-12-19T08:34:32.907Z,28.83
2022-12-19T08:37:00.975Z,29.20
2022-12-19T08:39:29.200Z,29.73
2022-12-19T08:41:57.254Z,29.40
2022-12-19T08:44:26.613Z,30.30
2022-12-19T08:46:54.557Z,29.43
2022-12-19T08:49:22.765Z,30.33
2022-12-19T08:51:51.118Z,28.10
2022-12-19T08:54:19.128Z,28.77
2022-12-19T08:56:47.298Z,28.30
2022-12-19T08:59:22.178Z,29.17
2022-12-19T09:02:01.615Z,28.37
2022-12-19T09:06:02.283Z,28.90
2022-12-19T09:07:18.525Z,29.07
2022-12-19T09:09:46.594Z,30.30
2022-12-19T09:12:15.521Z,31.00
2022-12-19T09:14:44.214Z,31.60
2022-12-19T09:17:13.778Z,29.60
2022-12-19T09:19:47.549Z,29.57
2022-12-19T09:22:16.768Z,28.47
2022-12-19T09:24:44.924Z,27.13
2022-12-19T09:27:12.911Z,30.57
2022-12-19T09:29:42.526Z,28.93
2022-12-19T09:32:10.571Z,28.00
2022-12-19T09:34:39.919Z,30.13
2022-12-19T09:37:08.960Z,31.33
2022-12-19T09:39:39.667Z,29.93
2022-12-19T09:42:21.974Z,32.23
2022-12-19T09:45:01.053Z,31.13
2022-12-19T09:47:32.244Z,30.97
2022-12-19T09:50:03.166Z,31.87
2022-12-19T09:52:37.025Z,31.30
2022-12-19T09:55:12.000Z,31.90
2022-12-19T09:57:50.826Z,31.87
2022-12-19T10:00:21.081Z,31.53
2022-12-19T10:02:55.489Z,34.07
2022-12-19T10:05:37.630Z,33.07
2022-12-19T10:08:20.454Z,32.50
2022-12-19T10:12:38.768Z,32.30
2022-12-19T10:14:13.412Z,34.87
2022-12-19T10:17:22.610Z,37.60
2022-12-19T10:19:50.779Z,37.83
2022-12-19T10:22:28.998Z,35.43
2022-12-19T10:25:16.855Z,34.53
2022-12-19T10:28:00.191Z,35.70
2022-12-19T10:30:31.848Z,35.77
2022-12-19T10:33:06.900Z,32.40
2022-12-19T10:35:44.241Z,38.77
2022-12-19T10:38:23.391Z,45.37
2022-12-19T10:40:56.369Z,41.20
2022-12-19T10:43:36.746Z,39.83
2022-12-19T10:46:18.272Z,40.63
2022-12-19T10:48:46.460Z,36.07
2022-12-19T10:51:23.827Z,38.00
2022-12-19T10:53:57.256Z,36.60
2022-12-19T10:56:31.702Z,35.27
2022-12-19T10:59:04.028Z,33.27
2022-12-19T11:01:40.712Z,32.30
2022-12-19T11:04:28.809Z,30.97
2022-12-19T11:07:18.677Z,31.27
2022-12-19T11:10:32.962Z,31.93
2022-12-19T11:16:48.526Z,30.70
2022-12-19T11:20:41.839Z,27.93
2022-12-19T11:27:22.246Z,32.70
2022-12-19T11:29:34.916Z,30.43
2022-12-19T11:29:45.131Z,30.27
2022-12-19T11:30:49.024Z,29.07
2022-12-19T11:32:42.971Z,31.10
2022-12-19T11:35:24.671Z,30.27
2022-12-19T11:37:57.201Z,30.87
2022-12-19T11:40:34.016Z,31.97
2022-12-19T11:46:03.899Z,30.33
2022-12-19T11:48:39.754Z,32.60
2022-12-19T11:51:15.758Z,30.93
2022-12-19T11:53:57.481Z,33.30
2022-12-19T11:56:27.890Z,33.43
2022-12-19T11:59:00.877Z,29.07
2022-12-19T12:01:47.468Z,27.77
2022-12-19T12:04:50.927Z,27.03
2022-12-19T12:08:11.585Z,25.87
2022-12-19T12:14:43.130Z,26.30
2022-12-19T12:23:32.157Z,29.33
2022-12-19T12:27:55.343Z,29.00
2022-12-19T12:31:04.352Z,26.90
2022-12-19T12:31:20.686Z,26.80
2022-12-19T12:31:45.690Z,29.37
2022-12-19T12:31:57.751Z,29.53
2022-12-19T12:35:32.823Z,30.40
2022-12-19T12:35:52.372Z,30.97
2022-12-19T12:40:04.394Z,33.70
2022-12-19T12:42:44.966Z,32.50
2022-12-19T12:45:22.903Z,32.40
2022-12-19T12:47:53.035Z,32.70
2022-12-19T12:50:25.368Z,31.40
2022-12-19T12:52:56.890Z,32.50
2022-12-19T12:55:29.627Z,32.10
2022-12-19T12:57:57.936Z,32.07
2022-12-19T13:00:28.139Z,32.77
2022-12-19T13:03:03.652Z,33.30
2022-12-19T13:05:51.933Z,33.27
2022-12-19T13:08:36.387Z,34.37
2022-12-19T13:11:07.592Z,33.67
2022-12-19T13:13:51.276Z,35.57
2022-12-19T13:16:53.025Z,39.67
2022-12-19T13:19:28.459Z,37.07
2022-12-19T13:22:21.822Z,37.47
2022-12-19T13:24:51.466Z,38.30
2022-12-19T13:27:38.700Z,38.83
2022-12-19T13:30:18.474Z,38.73
2022-12-19T13:33:10.131Z,37.90
2022-12-19T13:38:40.473Z,36.90
2022-12-19T13:40:02.472Z,38.73
2022-12-19T13:41:46.153Z,35.17
2022-12-19T13:44:14.536Z,34.53
2022-12-19T13:46:43.908Z,34.70
2022-12-19T13:49:16.208Z,34.67
2022-12-19T13:51:48.131Z,34.77
2022-12-19T13:54:22.960Z,36.80
2022-12-19T13:56:52.465Z,36.83
2022-12-19T13:59:22.075Z,36.57
2022-12-19T14:01:53.027Z,39.00
2022-12-19T14:04:28.554Z,37.90
2022-12-19T14:07:00.880Z,38.10
2022-12-19T14:11:27.705Z,38.80
2022-12-19T14:13:45.921Z,38.07
2022-12-19T14:15:33.731Z,39.37
2022-12-19T14:18:41.956Z,38.23
2022-12-19T14:22:06.091Z,39.30
2022-12-19T14:23:43.729Z,41.90
2022-12-19T14:28:22.205Z,44.23
2022-12-19T14:29:17.955Z,40.73
2022-12-19T14:33:46.477Z,39.40
2022-12-19T14:36:06.821Z,41.57
2022-12-19T14:39:20.229Z,41.17
2022-12-19T14:41:07.110Z,39.57
2022-12-19T14:43:58.854Z,42.87
2022-12-19T14:52:08.569Z,43.60
2022-12-19T14:54:09.467Z,43.60
2022-12-19T14:54:50.609Z,42.20
2022-12-19T14:56:15.981Z,42.47
2022-12-19T14:58:52.466Z,46.80
2022-12-19T15:01:25.890Z,45.83
2022-12-19T15:04:51.241Z,48.17
2022-12-19T15:07:07.807Z,44.63
2022-12-19T15:10:57.575Z,43.73
2022-12-19T15:14:55.229Z,42.07
2022-12-19T15:15:46.022Z,41.07
2022-12-19T15:18:22.100Z,41.83
2022-12-19T15:20:50.593Z,42.10
2022-12-19T15:23:22.289Z,42.10
2022-12-19T15:26:07.973Z,42.13
2022-12-19T15:28:40.436Z,40.63
2022-12-19T15:31:18.833Z,45.40
2022-12-19T15:34:23.461Z,44.80
2022-12-19T15:36:36.126Z,44.90
2022-12-19T15:39:04.758Z,47.50
2022-12-19T15:41:32.911Z,48.60
2022-12-19T15:44:08.073Z,44.23
2022-12-19T15:46:37.924Z,42.60
2022-12-19T15:49:15.457Z,43.27
2022-12-19T15:51:43.645Z,44.23
2022-12-19T15:56:59.817Z,45.83
2022-12-19T15:59:38.171Z,45.70
2022-12-19T16:02:16.471Z,45.33
2022-12-19T16:04:47.693Z,43.90
2022-12-19T16:07:17.792Z,46.60
2022-12-19T16:09:45.901Z,42.30
2022-12-19T16:12:16.542Z,46.30
2022-12-19T16:14:45.333Z,47.93
2022-12-19T16:17:23.650Z,46.37
2022-12-19T16:19:53.093Z,46.33
2022-12-19T16:22:22.717Z,46.67
2022-12-19T16:24:51.450Z,49.77
2022-12-19T16:27:23.927Z,47.10
2022-12-19T16:29:52.304Z,49.00
2022-12-19T16:32:22.481Z,54.17
2022-12-19T16:34:52.364Z,55.63
2022-12-19T16:37:20.449Z,53.57
2022-12-19T16:39:48.522Z,52.77
2022-12-19T16:42:17.505Z,53.77
2022-12-19T16:44:47.688Z,52.17
2022-12-19T16:47:17.445Z,52.83
2022-12-19T16:49:45.685Z,54.00
2022-12-19T16:52:15.412Z,54.57
2022-12-19T16:54:43.373Z,55.43
2022-12-19T16:57:20.155Z,53.67
2022-12-19T16:59:48.845Z,55.23
2022-12-19T17:02:40.420Z,56.87
2022-12-19T17:05:14.958Z,58.03
2022-12-19T17:07:44.592Z,55.20
2022-12-19T17:10:13.148Z,54.20
2022-12-19T17:12:42.688Z,50.50
2022-12-19T17:15:20.864Z,48.53
2022-12-19T17:17:49.444Z,51.23
2022-12-19T17:20:19.645Z,68.60
2022-12-19T17:22:50.029Z,62.30
2022-12-19T17:25:21.602Z,62.60
2022-12-19T17:27:50.229Z,60.73
2022-12-19T17:30:18.856Z,59.43
2022-12-19T17:32:49.109Z,56.27
2022-12-19T17:35:25.694Z,53.63
2022-12-19T17:37:58.322Z,50.60
2022-12-19T17:40:29.566Z,53.53
2022-12-19T17:42:58.394Z,43.47
2022-12-19T17:45:27.937Z,41.27
2022-12-19T17:48:02.328Z,42.53
2022-12-19T17:50:34.369Z,39.60
2022-12-19T17:53:03.714Z,41.00
2022-12-19T17:55:32.694Z,39.00
2022-12-19T17:58:00.677Z,34.83
2022-12-19T18:00:31.004Z,37.97
2022-12-19T18:03:04.931Z,37.30
2022-12-19T18:05:36.545Z,34.27
2022-12-19T18:08:17.703Z,32.63
2022-12-19T18:10:45.694Z,32.20
2022-12-19T18:13:13.696Z,32.03
2022-12-19T18:15:41.935Z,31.90
2022-12-19T18:18:14.638Z,32.67
2022-12-19T18:20:43.779Z,31.50
2022-12-19T18:23:18.701Z,31.53
2022-12-19T18:25:47.068Z,30.63
2022-12-19T18:28:15.923Z,30.83
2022-12-19T18:30:45.139Z,30.93
2022-12-19T18:33:17.850Z,32.63
2022-12-19T18:35:48.548Z,31.93
2022-12-19T18:38:19.543Z,31.40
2022-12-19T18:40:48.089Z,33.20
2022-12-19T18:43:17.245Z,33.97
2022-12-19T18:45:48.215Z,34.23
2022-12-19T18:48:20.698Z,30.77
2022-12-19T18:50:48.733Z,29.47
2022-12-19T18:53:25.658Z,29.77
2022-12-19T18:55:55.602Z,30.07
2022-12-19T18:58:23.593Z,29.90
2022-12-19T19:00:57.231Z,28.37
2022-12-19T19:03:30.755Z,27.73
2022-12-19T19:05:59.220Z,27.37
2022-12-19T19:08:30.733Z,29.73
2022-12-19T19:10:58.825Z,34.23
2022-12-19T19:13:27.667Z,36.07
2022-12-19T19:15:59.425Z,33.83
2022-12-19T19:18:30.634Z,31.73
2022-12-19T19:21:01.216Z,31.93
2022-12-19T19:23:35.431Z,32.00
2022-12-19T19:26:03.505Z,31.70
2022-12-19T19:28:31.711Z,30.33
2022-12-19T19:31:01.375Z,30.70
2022-12-19T19:33:33.423Z,28.10
2022-12-19T19:36:12.108Z,28.70
2022-12-19T19:38:46.454Z,28.23
2022-12-19T19:41:14.692Z,27.93
2022-12-19T19:43:42.749Z,27.37
2022-12-19T19:46:10.788Z,27.80
2022-12-19T19:48:41.320Z,28.17
2022-12-19T19:51:09.373Z,27.07
2022-12-19T19:53:37.431Z,27.67
2022-12-19T19:56:07.389Z,26.33
2022-12-19T19:58:35.407Z,26.33
2022-12-19T20:01:09.231Z,26.07
2022-12-19T20:03:37.551Z,26.17
2022-12-19T20:06:05.866Z,24.50
2022-12-19T20:08:39.638Z,26.97
2022-12-19T20:11:10.946Z,27.67
2022-12-19T20:13:39.489Z,25.00
2022-12-19T20:16:09.872Z,23.77
2022-12-19T20:18:38.894Z,23.70
2022-12-19T20:21:12.758Z,22.53
2022-12-19T20:23:42.648Z,22.40
2022-12-19T20:26:13.089Z,23.17
2022-12-19T20:28:48.413Z,23.70
2022-12-19T20:31:17.697Z,22.77
2022-12-19T20:33:46.266Z,20.87
2022-12-19T20:36:15.333Z,22.63
2022-12-19T20:38:43.769Z,22.50
2022-12-19T20:41:13.455Z,22.60
2022-12-19T20:43:41.749Z,20.83
2022-12-19T20:46:12.304Z,22.07
2022-12-19T20:48:40.933Z,22.10
2022-12-19T20:51:10.032Z,21.67
2022-12-19T20:53:39.170Z,20.17
2022-12-19T20:56:09.232Z,20.53
2022-12-19T20:58:39.223Z,20.93
2022-12-19T21:01:09.884Z,21.83
2022-12-19T21:03:38.451Z,23.00
2022-12-19T21:06:07.618Z,20.93
2022-12-19T21:08:36.088Z,22.30
2022-12-19T21:11:05.282Z,23.00
2022-12-19T21:13:33.801Z,23.77
2022-12-19T21:16:07.124Z,24.37
2022-12-19T21:18:36.249Z,22.97
2022-12-19T21:21:05.012Z,20.67
2022-12-19T21:23:33.686Z,20.70
2022-12-19T21:26:04.226Z,19.20
2022-12-19T21:28:33.276Z,19.30
2022-12-19T21:31:05.148Z,19.30
2022-12-19T21:33:33.841Z,18.90
2022-12-19T21:36:07.932Z,19.37
2022-12-19T21:38:36.076Z,20.30
2022-12-19T21:41:04.937Z,20.63
2022-12-19T21:43:33.495Z,20.80
2022-12-19T21:46:11.119Z,20.57
2022-12-19T21:48:41.191Z,20.83
2022-12-19T21:51:09.771Z,21.17
2022-12-19T21:53:39.350Z,20.30
2022-12-19T21:56:09.018Z,20.03
2022-12-19T21:58:37.053Z,20.13
2022-12-19T22:01:08.295Z,19.07
2022-12-19T22:03:38.529Z,19.50
2022-12-19T22:06:09.055Z,22.07
2022-12-19T22:08:37.467Z,20.30
2022-12-19T22:11:05.607Z,20.30
2022-12-19T22:13:33.602Z,19.67
2022-12-19T22:16:02.562Z,21.97
2022-12-19T22:18:30.618Z,20.57
2022-12-19T22:21:00.205Z,20.07
2022-12-19T22:23:29.233Z,21.50
2022-12-19T22:26:08.557Z,20.23
2022-12-19T22:28:38.406Z,19.10
2022-12-19T22:31:17.602Z,19.63
2022-12-19T22:33:46.253Z,19.33
2022-12-19T22:36:16.824Z,19.43
2022-12-19T22:38:49.839Z,18.83
2022-12-19T22:41:19.715Z,19.13
2022-12-19T22:43:48.326Z,20.40
2022-12-19T22:46:18.011Z,19.70
2022-12-19T22:48:46.891Z,18.97
2022-12-19T22:51:17.956Z,19.77
2022-12-19T22:53:47.222Z,19.23
2022-12-19T22:56:17.054Z,20.10
2022-12-19T22:58:46.917Z,20.23
2022-12-19T23:01:16.533Z,19.40
2022-12-19T23:03:45.201Z,19.87
2022-12-19T23:06:13.532Z,20.07
2022-12-19T23:08:43.232Z,19.37
2022-12-19T23:11:14.513Z,20.50
2022-12-19T23:13:43.127Z,20.70
2022-12-19T23:16:11.851Z,20.97
2022-12-19T23:18:40.823Z,19.03
2022-12-19T23:21:11.602Z,20.33
2022-12-19T23:23:43.145Z,20.17
2022-12-19T23:26:16.009Z,20.23
2022-12-19T23:28:45.893Z,20.33
2022-12-19T23:31:16.276Z,18.93
2022-12-19T23:33:44.318Z,19.40
2022-12-19T23:36:12.393Z,19.97
2022-12-19T23:38:42.132Z,18.40
2022-12-19T23:41:14.070Z,19.80
2022-12-19T23:43:42.958Z,19.70
2022-12-19T23:46:14.045Z,20.23
2022-12-19T23:48:42.656Z,19.77
2022-12-19T23:51:13.546Z,20.70
2022-12-19T23:53:41.953Z,21.40
2022-12-19T23:56:15.204Z,20.53
2022-12-19T23:58:43.842Z,20.37
